Time;durP1;ratioP1;P1;durP2;ratioP2;P2;SDS_P1;SDS_P2;PMS_P1;PMS_P2;Temp;Humidity;BMP_temperature;BMP_pressure;BME280_temperature;BME280_humidity;BME280_pressure;Samples;Min_cycle;Max_cycle;Signal;HPM_P1;HPM_P2
2022/11/15 00:00:51;;;;;;;10.67;9.67;;;;;;;7.66;100.00;99989.47;5064561;28;20181;-74
2022/11/15 00:03:18;;;;;;;12.27;11.07;;;;;;;7.66;100.00;99995.50;5073178;28;20603;-76
2022/11/15 00:05:44;;;;;;;11.93;10.83;;;;;;;7.64;100.00;99994.63;5065558;28;20903;-74
2022/11/15 00:08:10;;;;;;;12.50;11.37;;;;;;;7.62;100.00;99993.78;5067700;28;20178;-75
2022/11/15 00:10:36;;;;;;;11.70;10.70;;;;;;;7.58;100.00;99994.63;5068110;28;20701;-74
2022/11/15 00:13:10;;;;;;;11.00;10.10;;;;;;;7.55;100.00;99987.78;5069208;28;20202;-74
2022/11/15 00:15:39;;;;;;;10.73;9.83;;;;;;;7.51;100.00;99986.06;5070900;28;20617;-74
2022/11/15 00:18:06;;;;;;;10.97;10.07;;;;;;;7.48;100.00;99986.09;5068465;28;20189;-74
2022/11/15 00:20:35;;;;;;;11.03;10.07;;;;;;;7.45;100.00;99986.94;5062497;28;20551;-75
2022/11/15 00:23:00;;;;;;;10.87;9.97;;;;;;;7.43;100.00;99982.66;5065254;28;20254;-73
2022/11/15 00:25:27;;;;;;;11.63;10.43;;;;;;;7.40;100.00;99986.09;5068186;28;20186;-74
2022/11/15 00:27:56;;;;;;;10.50;9.50;;;;;;;7.37;100.00;99986.09;5071808;28;20177;-74
2022/11/15 00:30:21;;;;;;;10.33;9.43;;;;;;;7.35;100.00;99986.94;5065368;28;20930;-76
2022/11/15 00:32:46;;;;;;;10.77;9.87;;;;;;;7.34;100.00;99983.50;5076674;28;20669;-74
2022/11/15 00:35:12;;;;;;;12.87;11.70;;;;;;;7.33;100.00;99974.91;5069760;28;20189;-73
2022/11/15 00:37:37;;;;;;;11.90;10.90;;;;;;;7.35;100.00;99982.66;5074977;28;20289;-76
2022/11/15 00:40:03;;;;;;;10.93;9.90;;;;;;;7.39;100.00;99980.94;5071663;28;20189;-74
2022/11/15 00:42:28;;;;;;;10.50;9.60;;;;;;;7.45;100.00;99983.50;5081442;28;20208;-74
2022/11/15 00:44:54;;;;;;;11.10;10.10;;;;;;;7.47;100.00;99969.75;5082013;28;20190;-76
2022/11/15 00:47:19;;;;;;;11.53;10.43;;;;;;;7.53;100.00;99965.47;5081725;28;20233;-74
2022/11/15 00:49:44;;;;;;;11.23;10.23;;;;;;;7.58;100.00;99964.59;5076094;28;20202;-75
2022/11/15 00:52:09;;;;;;;11.80;10.77;;;;;;;7.62;100.00;99963.75;5075786;28;20211;-74
2022/11/15 00:54:35;;;;;;;10.50;9.60;;;;;;;7.66;100.00;99955.97;5065224;28;20182;-74
2022/11/15 00:57:00;;;;;;;11.23;10.23;;;;;;;7.67;100.00;99963.72;5069432;28;20735;-76
2022/11/15 00:59:25;;;;;;;10.60;9.70;;;;;;;7.68;100.00;99962.88;5081332;28;20705;-75
2022/11/15 01:01:51;;;;;;;9.53;8.73;;;;;;;7.69;100.00;99951.72;5053786;28;20804;-74
2022/11/15 01:04:16;;;;;;;9.87;8.90;;;;;;;7.70;100.00;99947.41;5077377;28;20200;-73
2022/11/15 01:06:41;;;;;;;10.67;9.60;;;;;;;7.68;100.00;99944.84;5071756;28;20295;-74
2022/11/15 01:09:07;;;;;;;10.37;9.47;;;;;;;7.68;100.00;99942.25;5070375;28;20193;-76
2022/11/15 01:11:32;;;;;;;9.93;9.10;;;;;;;7.68;100.00;99938.81;5060631;28;20237;-73
2022/11/15 01:13:57;;;;;;;10.00;9.20;;;;;;;7.69;100.00;99945.69;5068313;28;20182;-74
2022/11/15 01:16:23;;;;;;;9.70;8.80;;;;;;;7.69;100.00;99943.09;5077985;28;20201;-72
2022/11/15 01:18:48;;;;;;;10.37;9.40;;;;;;;7.67;100.00;99932.81;5073769;28;20192;-74
2022/11/15 01:21:16;;;;;;;9.77;8.97;;;;;;;7.70;100.00;99942.25;5076423;28;20205;-75
2022/11/15 01:23:42;;;;;;;9.40;8.60;;;;;;;7.69;100.00;99948.25;5080897;28;20655;-75
2022/11/15 01:26:11;;;;;;;10.13;9.30;;;;;;;7.70;100.00;99945.69;5066903;28;20189;-78
2022/11/15 01:28:39;;;;;;;10.13;9.23;;;;;;;7.72;100.00;99953.41;5074564;28;20194;-74
2022/11/15 01:31:07;;;;;;;8.43;7.73;;;;;;;7.74;100.00;99944.81;5067127;28;20218;-75
2022/11/15 01:33:36;;;;;;;8.57;7.77;;;;;;;7.75;100.00;99943.94;5062031;28;20235;-74
2022/11/15 01:36:06;;;;;;;9.10;8.30;;;;;;;7.76;100.00;99942.25;5072813;28;20267;-74
2022/11/15 01:38:32;;;;;;;8.63;7.93;;;;;;;7.76;100.00;99942.25;5064400;28;20812;-74
2022/11/15 01:40:57;;;;;;;8.17;7.57;;;;;;;7.76;100.00;99947.38;5070639;28;20267;-78
2022/11/15 01:43:24;;;;;;;8.37;7.67;;;;;;;7.77;100.00;99941.38;5066407;28;20681;-74
2022/11/15 01:45:59;;;;;;;9.17;8.27;;;;;;;7.80;100.00;99930.19;5064672;28;20664;-73
2022/11/15 01:48:31;;;;;;;8.37;7.67;;;;;;;7.82;100.00;99931.06;5072470;28;20682;-74
2022/11/15 01:50:59;;;;;;;7.73;7.03;;;;;;;7.86;100.00;99917.31;5065387;28;20351;-77
2022/11/15 01:53:25;;;;;;;7.60;7.00;;;;;;;7.89;100.00;99914.69;5072021;28;20189;-74
2022/11/15 01:55:52;;;;;;;7.80;7.13;;;;;;;7.92;100.00;99910.41;5073921;28;20597;-76
2022/11/15 01:58:17;;;;;;;8.33;7.67;;;;;;;7.96;100.00;99912.94;5067574;28;20186;-76
2022/11/15 02:00:43;;;;;;;7.90;7.10;;;;;;;7.97;100.00;99907.81;5063213;28;20197;-74
2022/11/15 02:03:08;;;;;;;7.80;7.20;;;;;;;7.99;100.00;99905.22;5059434;28;20209;-74
2022/11/15 02:05:36;;;;;;;7.77;7.07;;;;;;;8.01;100.00;99911.22;5080326;28;20652;-75
2022/11/15 02:08:01;;;;;;;7.07;6.47;;;;;;;8.01;100.00;99906.94;5071958;28;20322;-77
2022/11/15 02:10:28;;;;;;;7.63;6.97;;;;;;;8.00;100.00;99902.66;5059890;28;20695;-73
2022/11/15 02:12:55;;;;;;;7.10;6.50;;;;;;;7.98;100.00;99894.06;5054149;28;20332;-73
2022/11/15 02:15:21;;;;;;;7.17;6.60;;;;;;;7.96;100.00;99889.75;5078836;28;20276;-73
2022/11/15 02:18:03;;;;;;;6.97;6.37;;;;;;;7.94;100.00;99882.03;5072304;28;20271;-74
2022/11/15 02:20:49;;;;;;;7.37;6.67;;;;;;;7.91;100.00;99882.94;5056693;28;20209;-75
2022/11/15 02:23:21;;;;;;;7.57;6.90;;;;;;;7.90;100.00;99881.22;5074745;28;20213;-75
2022/11/15 02:26:13;;;;;;;7.63;7.00;;;;;;;7.90;100.00;99875.19;5061103;28;20186;-75
2022/11/15 02:29:13;;;;;;;7.47;6.80;;;;;;;7.87;100.00;99859.75;5061318;28;20193;-77
2022/11/15 02:31:59;;;;;;;7.50;6.90;;;;;;;7.86;100.00;99865.78;5070739;28;20221;-74
2022/11/15 02:34:30;;;;;;;7.33;6.63;;;;;;;7.83;100.00;99866.63;5059338;28;20276;-76
2022/11/15 02:37:17;;;;;;;7.80;7.10;;;;;;;7.82;100.00;99859.75;5067167;28;20185;-74
2022/11/15 02:40:06;;;;;;;7.80;7.10;;;;;;;7.83;100.00;99868.38;5064148;28;20189;-77
2022/11/15 02:45:38;;;;;;;7.70;7.10;;;;;;;7.85;100.00;99853.75;5057068;28;20255;-74
2022/11/15 02:48:05;;;;;;;6.93;6.40;;;;;;;7.88;100.00;99857.16;5073093;28;20207;-74
2022/11/15 02:50:33;;;;;;;8.03;7.33;;;;;;;7.93;100.00;99862.28;5085337;28;20888;-73
2022/11/15 02:52:58;;;;;;;7.17;6.60;;;;;;;7.97;100.00;99857.97;5072918;28;20210;-74
2022/11/15 02:55:29;;;;;;;6.90;6.30;;;;;;;7.99;100.00;99854.56;5067634;28;20198;-77
2022/11/15 02:58:25;;;;;;;7.70;7.10;;;;;;;8.02;100.00;99854.50;5065298;28;20254;-74
2022/11/15 03:01:01;;;;;;;7.47;6.87;;;;;;;8.03;100.00;99848.50;5055046;28;20182;-75
2022/11/15 03:03:42;;;;;;;6.83;6.33;;;;;;;8.05;100.00;99840.78;5080885;28;20226;-75
2022/11/15 03:06:42;;;;;;;6.97;6.43;;;;;;;8.07;100.00;99846.78;5077928;28;20200;-75
2022/11/15 03:09:29;;;;;;;7.03;6.43;;;;;;;8.09;100.00;99847.63;5066176;28;20798;-73
2022/11/15 03:12:07;;;;;;;7.00;6.33;;;;;;;8.12;100.00;99844.16;5063869;28;20259;-74
2022/11/15 03:14:36;;;;;;;7.70;7.00;;;;;;;8.14;100.00;99843.28;5062886;28;20268;-76
2022/11/15 03:17:11;;;;;;;7.43;6.83;;;;;;;8.16;100.00;99838.97;5068244;28;20193;-74
2022/11/15 03:19:59;;;;;;;7.37;6.77;;;;;;;8.17;100.00;99830.38;5079275;28;20219;-75
2022/11/15 03:22:28;;;;;;;7.30;6.53;;;;;;;8.18;100.00;99836.38;5071493;28;20320;-78
2022/11/15 03:24:57;;;;;;;7.50;6.93;;;;;;;8.16;100.00;99830.41;5067122;28;20188;-76
2022/11/15 03:27:27;;;;;;;7.43;6.27;;;;;;;8.15;100.00;99824.38;5065935;28;20182;-78
2022/11/15 03:29:59;;;;;;;7.60;6.90;;;;;;;8.14;100.00;99838.13;5067777;28;20275;-76
2022/11/15 03:32:28;;;;;;;8.03;7.33;;;;;;;8.13;100.00;99831.25;5078523;28;20262;-74
2022/11/15 03:34:59;;;;;;;7.80;6.93;;;;;;;8.12;100.00;99832.13;5074168;28;20185;-75
2022/11/15 03:37:34;;;;;;;7.63;7.03;;;;;;;8.13;100.00;99822.69;5073926;28;20181;-73
2022/11/15 03:40:01;;;;;;;7.20;6.50;;;;;;;8.11;100.00;99829.56;5063445;28;20219;-74
2022/11/15 03:42:42;;;;;;;7.40;6.70;;;;;;;8.09;100.00;99830.44;5061147;28;20391;-76
2022/11/15 03:45:22;;;;;;;6.53;6.03;;;;;;;8.08;100.00;99830.44;5071665;28;20556;-76
2022/11/15 03:48:05;;;;;;;6.80;6.30;;;;;;;8.04;100.00;99823.59;5073734;28;20189;-75
2022/11/15 03:50:31;;;;;;;6.93;6.33;;;;;;;8.04;100.00;99833.91;5068822;28;20217;-77
2022/11/15 03:52:57;;;;;;;8.27;6.70;;;;;;;8.04;100.00;99839.06;5068131;28;20204;-76
2022/11/15 03:55:23;;;;;;;7.43;6.77;;;;;;;8.05;100.00;99833.88;5066346;28;20185;-75
2022/11/15 03:57:53;;;;;;;6.90;6.40;;;;;;;8.06;100.00;99834.75;5062189;28;20190;-76
2022/11/15 04:00:18;;;;;;;6.90;6.20;;;;;;;8.07;100.00;99836.47;5072631;28;20344;-76
2022/11/15 04:02:43;;;;;;;6.93;6.33;;;;;;;8.07;100.00;99846.78;5076034;28;20209;-75
2022/11/15 04:05:09;;;;;;;7.30;6.60;;;;;;;8.05;100.00;99841.59;5069270;28;20560;-74
2022/11/15 04:07:34;;;;;;;7.20;6.60;;;;;;;8.06;100.00;99843.31;5071804;28;20191;-75
2022/11/15 04:10:02;;;;;;;6.63;6.13;;;;;;;8.07;100.00;99841.63;5072840;28;20383;-75
2022/11/15 04:12:36;;;;;;;7.10;6.50;;;;;;;8.07;100.00;99842.47;5069677;28;20279;-74
2022/11/15 04:15:08;;;;;;;6.67;6.03;;;;;;;8.06;100.00;99848.47;5060357;28;20186;-74
2022/11/15 04:17:38;;;;;;;6.87;6.27;;;;;;;8.04;100.00;99845.06;5071028;28;20677;-74
2022/11/15 04:25:36;;;;;;;7.20;6.60;;;;;;;8.05;100.00;99849.34;5072988;28;20227;-74
2022/11/15 04:28:01;;;;;;;7.77;7.03;;;;;;;8.09;100.00;99845.03;5071342;28;20241;-78
2022/11/15 04:30:26;;;;;;;6.73;6.23;;;;;;;8.13;100.00;99840.72;5088119;28;20224;-74
2022/11/15 04:32:52;;;;;;;6.43;5.83;;;;;;;8.17;100.00;99839.81;5078059;28;20224;-75
2022/11/15 04:35:17;;;;;;;6.43;5.90;;;;;;;8.19;100.00;99831.22;5075812;28;20186;-76
2022/11/15 04:37:43;;;;;;;6.60;6.00;;;;;;;8.23;100.00;99826.91;5079041;28;20501;-74
2022/11/15 04:40:08;;;;;;;7.40;6.80;;;;;;;8.26;100.00;99819.16;5069505;28;20268;-75
2022/11/15 04:42:33;;;;;;;6.40;5.90;;;;;;;8.29;100.00;99820.84;5067581;28;20333;-75
2022/11/15 04:44:59;;;;;;;6.87;6.27;;;;;;;8.29;100.00;99807.94;5068047;28;20192;-75
2022/11/15 04:47:24;;;;;;;6.73;6.23;;;;;;;8.26;100.00;99820.84;5067691;28;20524;-77
2022/11/15 04:49:49;;;;;;;7.17;6.53;;;;;;;8.18;100.00;99814.03;5074286;28;20212;-74
2022/11/15 04:52:15;;;;;;;8.10;7.30;;;;;;;8.15;100.00;99813.22;5062553;28;20224;-74
2022/11/15 04:54:41;;;;;;;8.27;7.57;;;;;;;8.08;100.00;99818.41;5069845;28;20191;-74
2022/11/15 04:57:07;;;;;;;7.67;7.07;;;;;;;8.04;100.00;99814.13;5078428;28;20193;-76
2022/11/15 04:59:32;;;;;;;8.07;7.37;;;;;;;8.02;100.00;99809.84;5058667;28;20565;-75
2022/11/15 05:01:59;;;;;;;8.10;7.27;;;;;;;8.02;100.00;99810.69;5068749;28;20261;-78
2022/11/15 05:04:24;;;;;;;8.00;7.40;;;;;;;8.05;100.00;99812.41;5081694;28;20197;-74
2022/11/15 05:06:51;;;;;;;7.70;7.10;;;;;;;8.08;100.00;99810.66;5068729;28;20269;-75
2022/11/15 05:09:18;;;;;;;7.90;7.30;;;;;;;8.12;100.00;99814.06;5069896;28;20628;-74
2022/11/15 05:11:44;;;;;;;7.67;7.07;;;;;;;8.13;100.00;99805.47;5065982;28;20231;-75
2022/11/15 05:14:09;;;;;;;7.63;6.97;;;;;;;8.17;100.00;99808.88;5062051;28;20177;-76
2022/11/15 05:16:35;;;;;;;6.70;6.10;;;;;;;8.16;100.00;99808.03;5067734;28;20206;-74
2022/11/15 05:19:00;;;;;;;7.40;6.80;;;;;;;8.17;100.00;99814.91;5075656;28;20185;-73
2022/11/15 05:21:26;;;;;;;7.10;6.40;;;;;;;8.16;100.00;99814.94;5062046;28;20236;-74
2022/11/15 05:23:51;;;;;;;7.53;6.93;;;;;;;8.16;100.00;99804.63;5069227;28;20184;-73
2022/11/15 05:26:17;;;;;;;7.73;7.00;;;;;;;8.17;100.00;99798.56;5068127;28;20178;-74
2022/11/15 05:28:43;;;;;;;7.37;6.87;;;;;;;8.16;100.00;99805.47;5068945;28;20559;-74
2022/11/15 05:31:11;;;;;;;7.63;7.00;;;;;;;8.17;100.00;99801.16;5068094;28;20213;-74
2022/11/15 05:33:41;;;;;;;7.07;6.47;;;;;;;8.19;100.00;99799.41;5075950;28;20589;-75
2022/11/15 05:36:14;;;;;;;7.10;6.50;;;;;;;8.17;100.00;99804.59;5066753;28;20281;-76
2022/11/15 05:38:39;;;;;;;7.43;6.87;;;;;;;8.15;100.00;99803.75;5068167;28;20201;-76
2022/11/15 05:41:05;;;;;;;7.40;6.33;;;;;;;8.13;100.00;99795.16;5061620;28;20190;-75
2022/11/15 05:43:35;;;;;;;7.30;6.70;;;;;;;8.11;100.00;99796.06;5074701;28;20173;-75
2022/11/15 05:46:04;;;;;;;7.20;6.70;;;;;;;8.06;100.00;99806.41;5063638;28;20645;-75
2022/11/15 05:48:29;;;;;;;6.63;6.03;;;;;;;8.02;100.00;99810.69;5062312;28;20217;-75
2022/11/15 05:50:56;;;;;;;7.70;7.00;;;;;;;7.96;100.00;99797.00;5058212;28;20228;-74
2022/11/15 05:53:22;;;;;;;7.50;6.80;;;;;;;7.92;100.00;99803.91;5062352;28;20194;-76
2022/11/15 05:55:48;;;;;;;7.97;7.17;;;;;;;7.86;100.00;99798.78;5077368;28;20193;-74
2022/11/15 05:58:14;;;;;;;7.77;7.17;;;;;;;7.83;100.00;99799.66;5067140;28;20717;-75
2022/11/15 06:00:39;;;;;;;7.57;6.97;;;;;;;7.80;100.00;99788.50;5063441;28;20181;-76
2022/11/15 06:03:05;;;;;;;7.97;7.27;;;;;;;7.74;100.00;99799.72;5069828;28;20656;-74
2022/11/15 06:05:30;;;;;;;8.10;7.50;;;;;;;7.72;100.00;99796.28;5075543;28;20185;-73
2022/11/15 06:07:59;;;;;;;7.77;7.07;;;;;;;7.69;100.00;99794.59;5068112;28;20184;-76
2022/11/15 06:10:24;;;;;;;7.87;7.17;;;;;;;7.68;100.00;99794.56;5066112;28;20700;-75
2022/11/15 06:13:00;;;;;;;9.70;8.90;;;;;;;7.70;100.00;99795.44;5071843;28;20216;-75
2022/11/15 06:15:25;;;;;;;9.73;8.93;;;;;;;7.70;100.00;99795.44;5065124;28;20242;-73
2022/11/15 06:17:51;;;;;;;10.70;8.23;;;;;;;7.71;100.00;99792.88;5076521;28;20259;-73
2022/11/15 06:20:17;;;;;;;9.13;8.33;;;;;;;7.73;100.00;99785.97;5080659;28;20486;-74
2022/11/15 06:22:43;;;;;;;9.17;8.27;;;;;;;7.76;100.00;99785.09;5075106;28;20214;-76
2022/11/15 06:25:08;;;;;;;8.90;8.20;;;;;;;7.80;100.00;99785.94;5078571;28;20207;-76
2022/11/15 06:27:33;;;;;;;8.80;8.00;;;;;;;7.83;100.00;99789.34;5060374;28;20190;-73
2022/11/15 06:29:59;;;;;;;7.77;7.17;;;;;;;7.85;100.00;99776.47;5064187;28;20205;-77
2022/11/15 06:32:24;;;;;;;8.03;7.33;;;;;;;7.88;100.00;99782.47;5068638;28;20648;-74
2022/11/15 06:34:49;;;;;;;8.40;7.70;;;;;;;7.91;100.00;99777.28;5066039;28;20231;-74
2022/11/15 06:37:15;;;;;;;8.83;8.13;;;;;;;7.94;100.00;99779.81;5063351;28;20182;-79
2022/11/15 06:39:40;;;;;;;9.93;9.10;;;;;;;7.97;100.00;99783.25;5055978;28;20627;-75
2022/11/15 06:42:07;;;;;;;9.60;8.70;;;;;;;7.99;100.00;99777.25;5071841;28;20701;-75
2022/11/15 06:44:32;;;;;;;10.17;9.27;;;;;;;8.03;100.00;99778.06;5057455;28;20530;-73
2022/11/15 06:46:58;;;;;;;10.80;9.80;;;;;;;8.05;100.00;99772.03;5063721;28;20263;-75
2022/11/15 06:49:23;;;;;;;9.83;9.00;;;;;;;8.09;100.00;99775.47;5074825;28;20182;-76
2022/11/15 06:51:48;;;;;;;9.60;8.80;;;;;;;8.12;100.00;99777.16;5065951;28;20217;-74
2022/11/15 06:54:14;;;;;;;8.70;8.00;;;;;;;8.15;100.00;99783.13;5064406;28;20230;-75
2022/11/15 06:56:39;;;;;;;10.63;9.63;;;;;;;8.19;100.00;99776.22;5064248;28;20239;-74
2022/11/15 06:59:04;;;;;;;10.13;9.23;;;;;;;8.22;100.00;99784.81;5060679;28;20288;-75
2022/11/15 07:01:30;;;;;;;10.53;9.43;;;;;;;8.27;100.00;99781.31;5054355;28;20378;-77
2022/11/15 07:03:55;;;;;;;9.47;8.60;;;;;;;8.33;100.00;99781.28;5066489;28;20673;-73
2022/11/15 07:06:20;;;;;;;8.40;7.70;;;;;;;8.37;100.00;99783.81;5056398;28;20324;-74
2022/11/15 07:08:46;;;;;;;8.33;7.63;;;;;;;8.43;100.00;99790.66;5070464;28;20269;-74
2022/11/15 07:11:11;;;;;;;7.80;7.10;;;;;;;8.47;100.00;99781.19;5062878;28;20245;-75
2022/11/15 07:13:37;;;;;;;8.07;7.20;;;;;;;8.49;100.00;99782.91;5082654;28;20219;-74
2022/11/15 07:16:07;;;;;;;7.97;7.27;;;;;;;8.51;100.00;99783.75;5076846;28;20210;-74
2022/11/15 07:18:39;;;;;;;7.40;6.80;;;;;;;8.54;100.00;99786.31;5071824;28;20217;-77
2022/11/15 07:21:07;;;;;;;7.00;6.40;;;;;;;8.56;100.00;99781.13;5058707;28;20216;-77
2022/11/15 07:23:33;;;;;;;6.90;6.30;;;;;;;8.59;100.00;99790.56;5060287;28;20321;-74
2022/11/15 07:25:59;;;;;;;6.90;6.30;;;;;;;8.62;100.00;99788.78;5067011;28;20709;-75
2022/11/15 07:28:25;;;;;;;6.50;6.00;;;;;;;8.65;100.00;99783.63;5061976;28;20576;-75
2022/11/15 07:30:51;;;;;;;6.73;6.23;;;;;;;8.68;100.00;99788.75;5063472;28;20208;-74
2022/11/15 07:33:16;;;;;;;6.07;5.47;;;;;;;8.71;100.00;99793.00;5067394;28;20215;-78
2022/11/15 07:35:42;;;;;;;5.97;5.57;;;;;;;8.71;100.00;99777.53;5069126;28;20182;-76
2022/11/15 07:38:08;;;;;;;5.40;5.00;;;;;;;8.72;100.00;99783.56;5067286;28;20297;-75
2022/11/15 07:40:33;;;;;;;6.17;5.67;;;;;;;8.70;100.00;99775.81;5063522;28;20274;-74
2022/11/15 07:43:04;;;;;;;6.00;5.43;;;;;;;8.69;100.00;99777.56;5060855;28;20229;-76
2022/11/15 07:45:29;;;;;;;7.73;6.40;;;;;;;8.69;100.00;99777.56;5069873;28;20201;-76
2022/11/15 07:47:55;;;;;;;6.97;5.50;;;;;;;8.73;100.00;99774.97;5059988;28;20191;-74
2022/11/15 07:50:22;;;;;;;6.10;5.57;;;;;;;8.76;100.00;99780.09;5070117;28;20210;-74
2022/11/15 07:52:53;;;;;;;5.20;4.70;;;;;;;8.81;100.00;99786.03;5069479;28;20285;-74
2022/11/15 07:55:18;;;;;;;10.37;9.53;;;;;;;8.84;100.00;99781.72;5058741;28;20193;-75
2022/11/15 07:57:44;;;;;;;10.40;9.50;;;;;;;8.89;100.00;99780.81;5061572;28;20182;-74
2022/11/15 08:00:10;;;;;;;9.27;8.47;;;;;;;8.93;100.00;99779.91;5061197;28;20174;-74
2022/11/15 08:02:35;;;;;;;8.07;7.37;;;;;;;8.94;100.00;99785.06;5066775;28;20206;-74
2022/11/15 08:05:00;;;;;;;6.87;6.27;;;;;;;8.99;100.00;99790.19;5065843;28;20174;-77
2022/11/15 08:07:29;;;;;;;6.13;5.63;;;;;;;9.05;100.00;99784.94;5061919;28;20591;-73
2022/11/15 08:09:55;;;;;;;6.07;5.57;;;;;;;9.12;100.00;99781.44;5055997;28;20194;-75
2022/11/15 08:12:21;;;;;;;5.87;5.43;;;;;;;9.20;100.00;99780.47;5066046;28;20217;-73
2022/11/15 08:14:47;;;;;;;4.97;4.57;;;;;;;9.30;100.00;99784.69;5066687;28;20185;-74
2022/11/15 08:17:12;;;;;;;5.53;5.03;;;;;;;9.42;100.00;99791.41;5060091;28;20722;-73
2022/11/15 08:19:37;;;;;;;4.90;4.50;;;;;;;9.55;100.00;99790.38;5069269;28;20279;-76
2022/11/15 08:22:03;;;;;;;5.10;4.60;;;;;;;9.67;100.00;99789.38;5074099;28;20391;-74
2022/11/15 08:24:28;;;;;;;5.30;4.90;;;;;;;9.80;100.00;99786.63;5063703;28;20179;-74
2022/11/15 08:26:53;;;;;;;8.73;7.93;;;;;;;9.90;100.00;99785.63;5066416;28;20189;-74
2022/11/15 08:29:19;;;;;;;6.33;5.83;;;;;;;9.97;100.00;99779.47;5065221;28;20854;-74
2022/11/15 08:31:44;;;;;;;6.80;6.20;;;;;;;9.96;100.00;99770.00;5067499;28;20291;-76
2022/11/15 08:34:10;;;;;;;7.33;6.37;;;;;;;9.97;100.00;99774.31;5063115;28;20179;-78
2022/11/15 08:36:35;;;;;;;6.30;5.80;;;;;;;10.03;100.00;99766.47;5070045;28;20247;-74
2022/11/15 08:39:00;;;;;;;5.33;4.93;;;;;;;10.12;100.00;99762.91;5070140;28;20210;-74
2022/11/15 08:41:36;;;;;;;5.97;5.47;;;;;;;10.21;100.00;99761.88;5068817;28;20198;-73
2022/11/15 08:44:01;;;;;;;6.20;5.70;;;;;;;10.32;100.00;99756.53;5068728;28;20178;-73
2022/11/15 08:46:27;;;;;;;6.67;6.17;;;;;;;10.40;100.00;99756.44;5050948;28;20191;-74
2022/11/15 08:48:52;;;;;;;6.27;5.77;;;;;;;10.50;100.00;99752.84;5077150;28;20625;-73
2022/11/15 08:51:17;;;;;;;6.40;5.90;;;;;;;10.60;100.00;99761.25;5060542;28;20222;-75
2022/11/15 08:53:43;;;;;;;5.60;5.10;;;;;;;10.66;100.00;99762.00;5069415;28;21000;-77
2022/11/15 08:56:10;;;;;;;5.60;5.20;;;;;;;10.74;100.00;99767.03;5050463;28;20203;-74
2022/11/15 08:58:36;;;;;;;6.20;5.27;;;;;;;10.77;100.00;99764.41;5059273;28;20194;-75
2022/11/15 09:01:02;;;;;;;5.50;5.00;;;;;;;10.81;100.00;99750.53;5063381;28;20175;-74
2022/11/15 09:03:28;;;;;;;5.43;4.93;;;;;;;10.88;100.00;99758.19;5060379;28;20197;-75
2022/11/15 09:06:00;;;;;;;5.33;4.83;;;;;;;10.92;100.00;99752.06;5063574;28;20276;-77
2022/11/15 09:08:29;;;;;;;4.50;4.20;;;;;;;10.95;100.00;99747.69;5068600;28;20286;-76
2022/11/15 09:10:55;;;;;;;4.97;4.17;;;;;;;10.98;100.00;99749.38;5070459;28;20267;-75
2022/11/15 09:13:20;;;;;;;4.33;4.00;;;;;;;11.02;100.00;99750.16;5064512;28;20186;-75
2022/11/15 09:15:45;;;;;;;4.77;4.37;;;;;;;11.06;100.00;99757.00;5069912;28;20178;-75
2022/11/15 09:18:11;;;;;;;4.10;3.70;;;;;;;11.11;100.00;99761.19;5057585;28;20274;-76
2022/11/15 09:20:36;;;;;;;4.50;4.10;;;;;;;11.19;100.00;99758.44;5063704;28;20189;-75
2022/11/15 09:23:03;;;;;;;4.33;4.03;;;;;;;11.26;100.00;99754.88;5066444;28;20286;-73
2022/11/15 09:25:29;;;;;;;4.77;4.33;;;;;;;11.36;100.00;99757.25;5070859;28;20270;-76
2022/11/15 09:27:55;;;;;;;6.00;4.97;;;;;;;11.44;100.00;99756.22;5061479;28;20199;-76
2022/11/15 09:30:22;;;;;;;5.97;5.27;;;;;;;11.50;100.00;99754.34;5063914;28;20206;-76
2022/11/15 09:32:47;;;;;;;6.33;5.77;;;;;;;11.57;100.00;99761.13;5065193;28;20301;-74
2022/11/15 09:35:13;;;;;;;9.80;8.90;;;;;;;11.59;100.00;99749.00;5063531;28;20197;-73
2022/11/15 09:37:38;;;;;;;10.10;9.10;;;;;;;11.58;100.00;99742.09;5062298;28;20195;-75
2022/11/15 09:40:04;;;;;;;10.17;9.17;;;;;;;11.56;100.00;99742.16;5068512;28;20524;-75
2022/11/15 09:42:53;;;;;;;9.90;9.03;;;;;;;11.53;100.00;99743.94;5066584;28;20207;-75
2022/11/15 09:45:25;;;;;;;6.67;6.07;;;;;;;11.49;100.00;99739.72;5075643;28;20194;-78
2022/11/15 09:48:18;;;;;;;6.40;5.83;;;;;;;11.48;100.00;99738.84;5067871;28;20230;-75
2022/11/15 09:50:49;;;;;;;5.20;4.80;;;;;;;11.48;100.00;99738.84;5080497;28;20267;-78
2022/11/15 09:53:24;;;;;;;5.20;4.60;;;;;;;11.43;100.00;99741.56;5075038;28;20243;-77
2022/11/15 09:56:01;;;;;;;8.17;7.37;;;;;;;11.44;100.00;99743.25;5057415;28;20212;-77
2022/11/15 09:58:39;;;;;;;14.60;13.10;;;;;;;11.46;100.00;99742.38;5068960;28;20203;-78
2022/11/15 10:01:12;;;;;;;13.80;12.50;;;;;;;11.46;100.00;99743.22;5062680;28;20674;-75
2022/11/15 10:03:41;;;;;;;10.10;9.10;;;;;;;11.46;100.00;99745.81;5069751;28;20271;-75
2022/11/15 10:06:18;;;;;;;8.77;7.97;;;;;;;11.45;100.00;99754.47;5074888;28;20188;-76
2022/11/15 10:09:06;;;;;;;8.13;7.43;;;;;;;11.44;100.00;99752.75;5063055;28;20181;-76
2022/11/15 10:11:36;;;;;;;7.47;6.87;;;;;;;11.44;100.00;99747.56;5069625;28;20297;-77
2022/11/15 10:14:08;;;;;;;7.00;6.40;;;;;;;11.46;100.00;99744.97;5062987;28;20674;-76
2022/11/15 10:16:55;;;;;;;7.27;6.63;;;;;;;11.48;100.00;99746.63;5051353;28;20221;-75
2022/11/15 10:19:23;;;;;;;6.03;5.63;;;;;;;11.50;100.00;99739.69;5062972;28;20183;-76
2022/11/15 10:22:10;;;;;;;5.67;5.17;;;;;;;11.53;100.00;99747.41;5059796;28;20234;-76
2022/11/15 10:24:41;;;;;;;5.43;4.93;;;;;;;11.55;100.00;99743.03;5063137;28;20211;-76
2022/11/15 10:27:12;;;;;;;5.57;5.17;;;;;;;11.58;100.00;99739.50;5074650;28;20199;-75
2022/11/15 10:29:46;;;;;;;5.23;4.83;;;;;;;11.61;100.00;99741.16;5065990;28;20584;-75
2022/11/15 10:32:14;;;;;;;4.67;4.27;;;;;;;11.64;100.00;99741.13;5058797;28;20671;-75
2022/11/15 10:34:39;;;;;;;5.03;4.63;;;;;;;11.66;100.00;99726.38;5064850;28;20691;-76
2022/11/15 10:37:04;;;;;;;4.90;4.50;;;;;;;11.68;100.00;99732.38;5064626;28;20189;-76
2022/11/15 10:39:30;;;;;;;4.90;4.43;;;;;;;11.70;100.00;99736.63;5070716;28;20192;-76
2022/11/15 10:41:56;;;;;;;5.10;4.60;;;;;;;11.72;100.00;99731.44;5052562;28;20211;-75
2022/11/15 10:44:32;;;;;;;5.87;5.37;;;;;;;11.74;100.00;99721.88;5065723;28;20204;-76
2022/11/15 10:46:57;;;;;;;5.80;5.30;;;;;;;11.77;100.00;99724.41;5070090;28;20180;-76
2022/11/15 10:49:30;;;;;;;5.17;4.70;;;;;;;11.81;100.00;99714.78;5075985;28;20534;-75
2022/11/15 10:51:59;;;;;;;4.87;4.50;;;;;;;11.88;100.00;99700.81;5066663;28;20295;-75
2022/11/15 10:54:29;;;;;;;4.87;4.43;;;;;;;11.95;100.00;99691.16;5061332;28;20184;-75
2022/11/15 10:56:58;;;;;;;4.17;3.87;;;;;;;12.04;100.00;99677.97;5064463;28;20192;-75
2022/11/15 10:59:33;;;;;;;4.43;4.03;;;;;;;12.18;100.00;99677.63;5072361;28;20184;-75
2022/11/15 11:01:59;;;;;;;4.13;3.73;;;;;;;12.30;100.00;99676.47;5051621;28;20206;-76
2022/11/15 11:04:25;;;;;;;3.67;3.37;;;;;;;12.45;100.00;99667.44;5070694;28;20194;-75
2022/11/15 11:06:51;;;;;;;4.07;3.70;;;;;;;12.60;100.00;99661.00;5067697;28;20234;-76
2022/11/15 11:09:35;;;;;;;3.53;3.23;;;;;;;12.77;100.00;99656.19;5071013;28;20258;-75
2022/11/15 11:12:02;;;;;;;4.30;3.10;;;;;;;12.87;100.00;99648.13;5064000;28;20217;-77
2022/11/15 11:14:31;;;;;;;3.70;3.40;;;;;;;12.92;100.00;99641.88;5064663;28;20261;-76
2022/11/15 11:17:05;;;;;;;4.00;3.60;;;;;;;13.01;100.00;99643.38;5061279;28;20186;-75
2022/11/15 11:19:55;;;;;;;3.30;3.00;;;;;;;13.10;100.00;99632.69;5059613;28;20562;-76
2022/11/15 11:22:46;;;;;;;4.43;3.50;;;;;;;13.21;100.00;99619.38;5055241;28;20221;-75
2022/11/15 11:25:17;;;;;;;4.47;4.07;;;;;;;13.32;100.00;99610.41;5056033;28;20195;-75
2022/11/15 11:28:01;;;;;;;4.17;3.83;;;;;;;13.41;100.00;99611.00;5071052;28;20185;-75
2022/11/15 11:30:35;;;;;;;3.73;3.40;;;;;;;13.48;100.00;99601.25;5071253;28;20198;-75
2022/11/15 11:33:21;;;;;;;4.20;3.80;;;;;;;13.43;100.00;99597.97;5062817;28;20269;-75
2022/11/15 11:36:17;;;;;;;3.73;3.43;;;;;;;13.40;100.00;99596.31;5071897;28;20185;-75
2022/11/15 11:38:56;;;;;;;5.13;3.80;;;;;;;13.45;100.00;99582.31;5057895;28;20944;-75
2022/11/15 11:41:37;;;;;;;4.27;3.63;;;;;;;13.46;100.00;99587.44;5057848;28;20208;-75
2022/11/15 11:44:21;;;;;;;4.03;3.63;;;;;;;13.46;100.00;99582.25;5056061;28;20193;-76
2022/11/15 11:46:55;;;;;;;3.70;3.40;;;;;;;13.48;100.00;99571.84;5052494;28;20207;-75